Terminal Aerodrome Forecast
Issued by NWS

Home | Current Version | Previous Version | Text Only | Print | Product List | Glossary On
Versions: 1 2 3 4 5 6 7 8 9 10 11 12 13 14 15 16 17 18 19
412
FTUS41 KGYX 221722
TAFMHT
TAF
KMHT 221722Z 2218/2318 25015G21KT P6SM BKN080
     FM221830 30014G24KT P6SM SCT080
     FM230000 31010KT P6SM SKC
     FM231300 31014G24KT P6SM SKC=

USA.gov is the U.S. government's official web portal to all federal, state and local government web resources and services.